Flight Track Log - Related Links

Times and Time Zones

All times are in EST time to prevent confusion due to time zone crossing. See the N307TS flight status page for this flight to view local times or setup timezone preferences in your user account.

Time Position Orientation Groundspeed Altitude Reporting Facility
EST Latitude Longitude Course Direction KTS MPH feet Rate Location/Type
Mon 11:17:46 AM 44.0836 -103.1133 307° West 173 199 5,200  Level Denver Center
Mon 11:18:47 AM 44.1056 -103.1750 296° West 168 193 7,000 1,686 Climbing Denver Center
Mon 11:19:47 AM 44.1239 -103.2289 295° West 161 185 8,600 1,587 Climbing Denver Center
Mon 11:20:48 AM 44.1453 -103.2878 297° West 163 188 10,200 1,574 Climbing Denver Center
Mon 11:21:49 AM 44.1669 -103.3497 296° West 168 193 11,800 1,488 Climbing Denver Center
Mon 11:22:49 AM 44.1861 -103.4094 294° West 176 203 13,200 1,091 Climbing Denver Center
Mon 11:24:12 AM 44.2061 -103.4842 290° West 181 208 14,400 1,572 Climbing Denver Center
Mon 11:25:14 AM 44.2319 -103.5494 299° West 180 207 17,000 1,935 Climbing Denver Center
Mon 11:26:16 AM 44.2528 -103.6108 295° West 173 199 18,400 1,597 Climbing Denver Center
Mon 11:27:18 AM 44.2764 -103.6858 294° West 176 203 20,300 1,597 Climbing Denver Center
Mon 11:28:20 AM 44.2994 -103.7494 297° West 178 205 21,700 1,452 Climbing Denver Center
Mon 11:29:22 AM 44.3200 -103.8117 295° West 178 205 23,300 1,113 Climbing Denver Center
Mon 11:30:24 AM 44.3428 -103.8717 298° West 177 204 24,000 339 Climbing Denver Center
Mon 11:31:26 AM 44.3617 -103.9353 293° West 178 205 24,000  Level Denver Center
Mon 11:32:28 AM 44.3822 -104.0089 291° West 190 219 24,000  Level Denver Center
Mon 11:33:30 AM 44.4144 -104.0992 297° West 203 234 24,000  Level Denver Center
Mon 11:34:32 AM 44.4472 -104.1789 300° West 214 246 24,000  Level Denver Center
Mon 11:35:34 AM 44.4744 -104.2558 296° West 219 252 24,000  Level Denver Center
Mon 11:36:36 AM 44.5003 -104.3347 295° West 222 255 24,000  Level Denver Center
Mon 11:37:38 AM 44.5264 -104.4150 295° West 225 259 24,000  Level Denver Center
Mon 11:38:41 AM 44.5542 -104.4975 295° West 229 264 24,000  Level Denver Center
Mon 11:39:43 AM 44.5869 -104.5953 295° West 231 266 24,000  Level Denver Center
Mon 11:40:45 AM 44.6144 -104.6781 295° West 232 267 24,000  Level Denver Center
Mon 11:41:47 AM 44.6425 -104.7622 295° West 236 272 24,000  Level Denver Center
Mon 11:42:49 AM 44.6719 -104.8467 296° West 238 274 24,000  Level Denver Center
Mon 11:43:51 AM 44.6992 -104.9314 294° West 239 275 24,000  Level Denver Center
Mon 11:44:53 AM 44.7267 -105.0167 294° West 239 275 24,000  Level Denver Center
Mon 11:46:03 AM 44.7567 -105.1150 293° West 237 273 24,000  Level Salt Lake Center
Mon 11:47:04 AM 44.7856 -105.1986 296° West 237 273 24,000  Level Salt Lake Center
Mon 11:47:59 AM 44.8147 -105.2861 295° West 239 275 24,000  Level Denver Center
Mon 11:49:01 AM 44.8428 -105.3708 295° West 239 275 24,000  Level Denver Center
Mon 11:50:10 AM 44.8758 -105.4725 295° West 241 277 24,000  Level Salt Lake Center
Mon 11:51:12 AM 44.9033 -105.5586 294° West 242 278 24,000  Level Salt Lake Center
Mon 11:53:09 AM 44.9597 -105.7297 295° West 240 276 24,000  Level Denver Center
Mon 11:54:17 AM 44.9914 -105.8297 294° West 237 273 24,000  Level Salt Lake Center
Mon 11:55:19 AM 45.0183 -105.9144 294° West 237 273 24,000  Level Salt Lake Center
Mon 11:56:21 AM 45.0450 -105.9997 294° West 237 273 24,000  Level Salt Lake Center
Mon 11:57:22 AM 45.0711 -106.0858 293° West 238 274 24,000  Level Salt Lake Center
Mon 11:58:24 AM 45.0981 -106.1714 294° West 239 275 24,000  Level Salt Lake Center
Mon 11:59:26 AM 45.1256 -106.2561 295° West 238 274 24,000  Level Salt Lake Center
Mon 12:00:28 PM 45.1528 -106.3422 294° West 239 275 24,000  Level Salt Lake Center
Mon 12:01:29 PM 45.1844 -106.4444 294° West 239 275 24,000  Level Salt Lake Center
Mon 12:02:31 PM 45.2108 -106.5303 294° West 238 274 24,000  Level Salt Lake Center
Mon 12:03:33 PM 45.2375 -106.6164 294° West 239 275 24,000  Level Salt Lake Center
Mon 12:04:34 PM 45.2636 -106.7031 293° West 239 275 24,000  Level Salt Lake Center
Mon 12:05:36 PM 45.2900 -106.7886 294° West 239 275 24,000  Level Salt Lake Center
Mon 12:06:38 PM 45.3167 -106.8744 294° West 238 274 24,000 -145 Level Salt Lake Center
Mon 12:07:40 PM 45.3425 -106.9589 294° West 237 273 23,700 -519 Descending Salt Lake Center
Mon 12:09:00 PM 45.3645 -107.0721 297° West  Level FlightAware Approximate
Mon 12:09:43 PM 45.3994 -107.1450 297° West 235 270 22,400  Level Salt Lake Center
Mon 12:10:45 PM 45.4250 -107.2311 293° West 235 270 21,700 -677 Descending Salt Lake Center
Mon 12:11:47 PM 45.4503 -107.3153 293° West 234 269 21,000 -726 Descending Salt Lake Center
Mon 12:12:49 PM 45.4750 -107.3997 293° West 232 267 20,200 -976 Descending Salt Lake Center
Mon 12:13:50 PM 45.5006 -107.4858 293° West 236 272 19,000 -1,317 Descending Salt Lake Center
Mon 12:14:52 PM 45.5192 -107.5969 283° West 243 280 17,500 -1,306 Descending Salt Lake Center
Mon 12:15:54 PM 45.5308 -107.6933 280° West 248 285 16,300 -1,210 Descending Salt Lake Center
Mon 12:16:56 PM 45.5431 -107.8000 279° West 255 293 15,000 -1,210 Descending Salt Lake Center
Mon 12:17:58 PM 45.5569 -107.8964 282° West 252 290 13,800 -1,171 Descending Salt Lake Center
Mon 12:18:59 PM 45.5739 -107.9983 283° West 247 284 12,600 -1,122 Descending Salt Lake Center
Mon 12:20:01 PM 45.6014 -108.0844 295° West 242 278 11,500 -1,113 Descending Salt Lake Center
Mon 12:21:03 PM 45.6297 -108.1767 294° West 238 274 10,300 -919 Descending Salt Lake Center
Mon 12:22:05 PM 45.6550 -108.2600 293° West 232 267 9,600 -732 Descending Salt Lake Center
Mon 12:23:06 PM 45.6769 -108.3456 290° West 230 265 8,800 -780 Descending Salt Lake Center
Mon 12:24:08 PM 45.6961 -108.4378 287° West 229 264 8,000 -387 Descending Salt Lake Center
Mon 12:25:10 PM 45.7150 -108.5161 289° West 212 244 8,000  Level Salt Lake Center
Mon 12:26:12 PM 45.7322 -108.5989 287° West 202 232 8,000 -537 Level Salt Lake Center
Mon 12:27:13 PM 45.7475 -108.6767 286° West 204 235 6,900 -976 Descending Salt Lake Center
Mon 12:28:15 PM 45.7592 -108.7569 282° West 206 237 6,000 -435 Descending Salt Lake Center
Mon 12:29:17 PM 45.7722 -108.8353 283° West 192 221 6,000  Level Salt Lake Center
Mon 12:30:19 PM 45.8167 -108.8481 349° North 188 216 6,000  Level Salt Lake Center
Mon 12:31:20 PM 45.8589 -108.8142 29° Northeast 173 199 6,000 -146 Level Salt Lake Center
Mon 12:32:22 PM 45.8603 -108.7433 88° East 180 207 5,700 -242 Descending Salt Lake Center
Mon 12:33:24 PM 45.8481 -108.6825 106° East 151 174 5,500 -435 Descending Salt Lake Center
Mon 12:34:26 PM 45.8342 -108.6322 112° Southeast 140 161 4,800 -677 Descending Salt Lake Center
Mon 12:35:28 PM 45.8222 -108.5878 111° Southeast 115 132 4,100 -585 Descending Salt Lake Center
Mon 12:36:29 PM 45.8103 -108.5497 114° Southeast 109 125 3,600 -492 Descending Salt Lake Center

Login

Don't have an account? Register now (free) for customized features, flight alerts, and more!